Time;durP1;ratioP1;P1;durP2;ratioP2;P2;SDS_P1;SDS_P2;PMS_P1;PMS_P2;Temp;Humidity;BMP_temperature;BMP_pressure;BME280_temperature;BME280_humidity;BME280_pressure;Samples;Min_cycle;Max_cycle;Signal;HPM_P1;HPM_P2
2021/12/01 00:00:33;;;;;;;;;14.75;13.00;;;;;9.93;66.41;100589.16;5067336;28;45426;-48
2021/12/01 00:02:59;;;;;;;;;14.00;13.00;;;;;9.96;66.36;100579.50;5062633;28;45232;-45
2021/12/01 00:05:27;;;;;;;;;20.00;18.75;;;;;9.96;66.49;100569.91;5062654;28;46468;-47
2021/12/01 00:07:54;;;;;;;;;18.75;17.25;;;;;9.97;66.47;100555.84;5062160;28;45466;-48
2021/12/01 00:10:21;;;;;;;;;21.25;18.00;;;;;10.01;66.45;100569.81;5062484;28;45433;-49
2021/12/01 00:12:47;;;;;;;;;18.25;17.75;;;;;9.99;66.34;100564.59;5061078;28;45510;-48
2021/12/01 00:15:12;;;;;;;;;17.25;14.75;;;;;9.99;66.41;100564.59;5061874;28;45403;-43
2021/12/01 00:17:37;;;;;;;;;19.00;17.25;;;;;10.03;66.28;100542.63;5062592;28;45339;-44
2021/12/01 00:20:09;;;;;;;;;17.00;16.00;;;;;9.99;66.67;100553.22;5057877;28;45365;-44
2021/12/01 00:22:35;;;;;;;;;16.25;16.00;;;;;10.00;66.54;100533.94;5058118;28;45365;-47
2021/12/01 00:25:00;;;;;;;;;17.75;13.25;;;;;10.01;66.59;100523.44;5062119;28;45422;-44
2021/12/01 00:27:26;;;;;;;;;18.50;17.25;;;;;10.02;66.50;100512.03;5060958;28;45412;-47
2021/12/01 00:29:51;;;;;;;;;15.25;14.50;;;;;10.04;66.63;100515.50;5062365;28;45558;-47
2021/12/01 00:32:18;;;;;;;;;22.75;22.75;;;;;10.03;66.50;100487.50;5062313;28;45421;-44
2021/12/01 00:34:43;;;;;;;;;18.00;16.75;;;;;10.07;66.54;100496.22;5061899;28;46343;-46
2021/12/01 00:37:09;;;;;;;;;20.75;19.00;;;;;10.09;66.38;100484.78;5061807;28;45324;-45
2021/12/01 00:39:34;;;;;;;;;19.00;18.25;;;;;10.07;66.46;100476.09;5060980;28;45290;-46
2021/12/01 00:42:00;;;;;;;;;18.75;16.75;;;;;10.07;66.40;100473.47;5060600;28;45252;-48
2021/12/01 00:44:29;;;;;;;;;12.00;12.00;;;;;10.01;66.70;100455.19;5058377;28;45410;-44
2021/12/01 00:49:26;;;;;;;;;15.50;14.75;;;;;10.07;66.63;100444.59;5063186;27;45450;-46
2021/12/01 00:51:51;;;;;;;;;16.50;16.25;;;;;10.05;66.52;100408.72;5060322;28;45769;-45
2021/12/01 00:54:17;;;;;;;;;15.00;13.75;;;;;10.02;66.54;100422.75;5061385;28;45957;-46
2021/12/01 00:56:44;;;;;;;;;13.00;11.75;;;;;10.06;66.55;100424.47;5061955;28;45415;-44
2021/12/01 00:59:09;;;;;;;;;15.50;14.00;;;;;10.07;66.55;100420.94;5062006;28;45464;-44
2021/12/01 01:01:34;;;;;;;;;15.50;13.75;;;;;10.04;66.54;100402.63;5059917;28;45317;-47
2021/12/01 01:04:00;;;;;;;;;17.75;15.75;;;;;10.03;66.60;100395.63;5061825;28;45989;-43
2021/12/01 01:06:26;;;;;;;;;17.75;13.50;;;;;10.05;66.54;100380.72;5061740;28;45357;-44
2021/12/01 01:08:52;;;;;;;;;13.75;13.75;;;;;10.11;66.55;100371.00;5061834;28;45275;-43
2021/12/01 01:16:49;;;;;;;;;13.50;13.00;;;;;10.13;66.46;100363.97;5061420;28;45391;-45
2021/12/01 01:19:15;;;;;;;;;16.25;12.25;;;;;10.14;66.31;100366.56;5061731;28;45251;-46
2021/12/01 01:21:47;;;;;;;;;17.50;15.50;;;;;10.16;66.50;100363.91;5061203;28;45188;-46
2021/12/01 01:24:13;;;;;;;;;17.75;15.25;;;;;10.11;66.41;100363.13;5061257;28;45999;-44
2021/12/01 01:26:39;;;;;;;;;14.25;12.25;;;;;10.11;66.32;100352.63;5061466;28;45332;-46
2021/12/01 01:29:05;;;;;;;;;15.50;14.00;;;;;10.10;66.49;100322.88;5061483;28;45355;-48
2021/12/01 01:31:31;;;;;;;;;13.25;11.50;;;;;10.12;66.15;100343.84;5061231;28;45411;-46
2021/12/01 01:34:00;;;;;;;;;17.75;13.75;;;;;10.12;66.38;100338.59;5060989;28;46130;-44
2021/12/01 01:36:27;;;;;;;;;10.00;10.00;;;;;10.09;66.19;100329.88;5061137;28;45260;-44
2021/12/01 01:38:56;;;;;;;;;11.50;9.00;;;;;10.12;66.35;100323.69;5059865;28;45337;-45
2021/12/01 01:41:21;;;;;;;;;6.50;6.25;;;;;10.14;66.17;100321.94;5059976;28;45452;-44
2021/12/01 01:43:49;;;;;;;;;15.00;13.75;;;;;10.09;66.20;100322.00;5059615;28;47148;-44
2021/12/01 01:46:16;;;;;;;;;13.00;12.00;;;;;10.14;66.30;100310.53;5056425;28;45336;-45
2021/12/01 01:49:06;;;;;;;;;12.25;12.25;;;;;10.13;66.08;100329.84;5065262;28;45316;-43
2021/12/01 01:51:30;;;;;;;;;12.00;9.00;;;;;10.13;66.26;100298.34;5060662;28;45368;-44
2021/12/01 01:53:57;;;;;;;;;12.75;11.25;;;;;10.13;66.13;100299.19;5060157;28;45303;-45
2021/12/01 01:56:24;;;;;;;;;13.50;11.75;;;;;10.11;66.22;100294.84;5061124;28;45318;-45
2021/12/01 01:58:50;;;;;;;;;11.75;9.50;;;;;10.11;66.32;100310.63;5059697;28;45470;-47
2021/12/01 02:04:00;;;;;;;;;13.50;10.00;;;;;10.07;66.18;100294.94;5060836;28;45324;-44
2021/12/01 02:06:26;;;;;;;;;14.00;10.25;;;;;10.08;66.23;100288.75;5060537;28;45460;-44
2021/12/01 02:08:55;;;;;;;;;12.25;9.25;;;;;10.04;66.21;100281.84;5060729;28;45311;-45
2021/12/01 02:11:21;;;;;;;;;13.00;9.50;;;;;10.05;66.35;100280.06;5060661;28;45303;-44
2021/12/01 02:13:48;;;;;;;;;14.75;13.00;;;;;10.03;66.34;100280.13;5060738;28;46070;-45
2021/12/01 02:16:14;;;;;;;;;13.00;13.00;;;;;10.07;66.31;100280.91;5060300;28;45350;-48
2021/12/01 02:18:42;;;;;;;;;12.25;12.00;;;;;10.07;66.31;100286.16;5060772;28;45350;-44
2021/12/01 02:21:28;;;;;;;;;18.75;14.25;;;;;10.05;66.50;100275.72;5060261;28;45441;-44
2021/12/01 02:24:10;;;;;;;;;17.00;13.75;;;;;10.01;66.30;100255.66;5058983;28;46245;-45
2021/12/01 02:26:39;;;;;;;;;13.25;12.00;;;;;10.05;66.15;100248.56;5058017;28;45365;-46
2021/12/01 02:29:08;;;;;;;;;14.00;13.00;;;;;10.07;66.34;100254.66;5059296;28;45330;-44
2021/12/01 02:31:36;;;;;;;;;13.50;7.75;;;;;10.05;66.40;100245.94;5060170;28;45439;-46
2021/12/01 02:34:05;;;;;;;;;15.00;13.00;;;;;10.06;66.53;100232.81;5054627;28;46404;-44
2021/12/01 02:36:31;;;;;;;;;15.00;13.50;;;;;10.03;66.47;100217.09;5052936;28;45275;-47
2021/12/01 02:38:56;;;;;;;;;13.75;12.00;;;;;10.02;66.56;100207.50;5058965;28;45379;-43
2021/12/01 02:41:28;;;;;;;;;11.50;11.50;;;;;10.05;66.54;100217.06;5060328;28;45292;-45
2021/12/01 02:43:54;;;;;;;;;8.00;8.00;;;;;10.06;66.49;100205.69;5054527;28;45551;-45
2021/12/01 02:46:19;;;;;;;;;14.00;14.00;;;;;10.09;66.39;100197.75;5051223;28;45319;-45
2021/12/01 02:48:46;;;;;;;;;15.25;14.00;;;;;10.06;66.68;100192.56;5069907;28;45257;-45
2021/12/01 02:51:11;;;;;;;;;14.25;12.00;;;;;10.04;66.53;100194.38;5060274;28;45439;-46
2021/12/01 02:53:39;;;;;;;;;13.00;13.00;;;;;10.06;66.39;100180.31;5058976;28;45966;-45
2021/12/01 02:56:06;;;;;;;;;12.25;9.25;;;;;10.03;66.73;100172.47;5060194;28;45307;-46
2021/12/01 02:58:38;;;;;;;;;9.50;6.00;;;;;10.02;66.72;100170.75;5060258;28;45322;-45
2021/12/01 03:01:06;;;;;;;;;14.25;11.00;;;;;10.04;66.63;100158.47;5073112;28;45637;-48
2021/12/01 03:03:32;;;;;;;;;13.75;10.50;;;;;10.01;66.72;100153.28;5052942;28;48374;-48
2021/12/01 03:05:58;;;;;;;;;8.75;8.75;;;;;10.02;66.84;100151.50;5079640;27;45354;-46
2021/12/01 03:08:24;;;;;;;;;9.25;8.00;;;;;9.99;66.83;100141.94;5046808;28;45309;-45
2021/12/01 03:10:51;;;;;;;;;9.00;8.00;;;;;10.01;67.04;100127.03;5059562;28;45418;-46
2021/12/01 03:13:19;;;;;;;;;8.75;8.75;;;;;10.02;66.91;100112.13;5047043;28;46567;-46
2021/12/01 03:15:45;;;;;;;;;7.50;7.00;;;;;10.00;67.08;100108.69;5059735;28;45326;-46
2021/12/01 03:18:11;;;;;;;;;7.00;7.00;;;;;10.00;66.84;100079.81;5060332;28;45382;-46
2021/12/01 03:20:37;;;;;;;;;7.00;7.00;;;;;9.99;67.23;100075.47;5059711;28;45611;-47
2021/12/01 03:23:03;;;;;;;;;8.00;8.00;;;;;10.00;67.07;100075.44;5059711;28;45218;-47
2021/12/01 03:25:29;;;;;;;;;6.50;6.50;;;;;10.04;67.30;100082.34;5058131;28;45226;-46
2021/12/01 03:27:54;;;;;;;;;8.00;8.00;;;;;10.02;67.15;100060.50;5058856;28;45277;-45
2021/12/01 03:30:20;;;;;;;;;10.25;8.25;;;;;10.06;66.92;100054.28;5059688;28;45399;-46
2021/12/01 03:32:45;;;;;;;;;5.75;5.25;;;;;10.07;67.02;100061.28;5067575;28;46150;-46
2021/12/01 03:35:14;;;;;;;;;9.00;6.75;;;;;10.04;67.31;100058.72;5065397;28;45203;-46
2021/12/01 03:37:42;;;;;;;;;6.50;6.50;;;;;10.07;67.20;100057.78;5060005;28;45370;-45
2021/12/01 03:40:10;;;;;;;;;10.25;8.25;;;;;10.06;66.91;100043.78;5059297;28;45431;-44
2021/12/01 03:42:35;;;;;;;;;13.25;10.00;;;;;10.10;67.08;100047.22;5059632;28;45196;-45
2021/12/01 03:45:01;;;;;;;;;9.00;8.25;;;;;10.13;67.47;100044.50;5053844;28;45414;-46
2021/12/01 03:47:27;;;;;;;;;13.00;10.25;;;;;10.13;67.17;100038.41;5059738;28;45479;-47
2021/12/01 03:49:53;;;;;;;;;9.75;8.50;;;;;10.14;67.40;100029.59;5060081;28;45240;-45
2021/12/01 03:52:19;;;;;;;;;11.00;9.50;;;;;10.13;67.53;100022.66;5079642;27;46627;-46
2021/12/01 03:54:46;;;;;;;;;10.00;7.75;;;;;10.15;67.43;100026.97;5052410;27;45393;-45
2021/12/01 03:57:12;;;;;;;;;11.25;11.25;;;;;10.15;67.51;100012.94;5059377;28;45521;-43
2021/12/01 03:59:38;;;;;;;;;9.00;9.00;;;;;10.13;67.43;99993.78;5059417;28;45476;-44
2021/12/01 04:02:04;;;;;;;;;10.00;10.00;;;;;10.16;67.64;99991.94;5057716;28;45362;-44
2021/12/01 04:04:30;;;;;;;;;11.25;11.25;;;;;10.17;67.50;99983.13;5072893;28;45364;-44
2021/12/01 04:06:55;;;;;;;;;8.00;8.00;;;;;10.15;67.71;99982.31;5059253;28;45252;-47
2021/12/01 04:09:21;;;;;;;;;10.25;8.00;;;;;10.11;67.80;99971.94;5059102;28;45521;-47
2021/12/01 04:11:46;;;;;;;;;12.25;9.25;;;;;10.13;67.52;99965.75;5070009;28;46376;-48
2021/12/01 04:14:12;;;;;;;;;7.25;6.75;;;;;10.12;67.78;99956.13;5059161;28;45356;-46
2021/12/01 04:16:37;;;;;;;;;15.00;14.25;;;;;10.13;67.69;99946.50;5059451;28;45378;-44
2021/12/01 04:19:03;;;;;;;;;10.75;7.50;;;;;10.11;67.95;99954.41;5062659;28;45509;-45
2021/12/01 04:21:28;;;;;;;;;12.00;9.00;;;;;10.06;68.00;99933.53;5060860;28;48217;-44
2021/12/01 04:23:55;;;;;;;;;10.00;9.00;;;;;10.03;67.95;99930.97;5062394;28;45335;-44
2021/12/01 04:26:23;;;;;;;;;12.00;8.50;;;;;10.02;68.28;99928.38;5050772;28;45378;-44
2021/12/01 04:28:50;;;;;;;;;9.25;9.25;;;;;9.97;68.31;99893.53;5062368;28;45443;-44
2021/12/01 04:31:15;;;;;;;;;8.25;7.25;;;;;9.97;68.17;99888.28;5062313;28;46961;-44
2021/12/01 04:33:41;;;;;;;;;9.00;9.00;;;;;9.99;68.26;99895.22;5062335;28;45343;-44
2021/12/01 04:36:07;;;;;;;;;8.75;8.75;;;;;9.93;68.71;99888.34;5062514;28;45515;-42
2021/12/01 04:38:32;;;;;;;;;10.50;8.50;;;;;9.95;68.67;99879.56;5062290;28;45447;-43
2021/12/01 04:40:58;;;;;;;;;9.25;9.25;;;;;9.90;68.44;99866.59;5062064;28;46005;-43
2021/12/01 04:43:23;;;;;;;;;6.00;6.00;;;;;9.86;68.53;99849.16;5062411;28;45223;-45
2021/12/01 04:45:54;;;;;;;;;6.00;6.00;;;;;9.85;68.62;99843.06;5062315;28;45467;-43
2021/12/01 04:48:19;;;;;;;;;4.00;4.00;;;;;9.81;68.98;99840.56;5062237;28;45339;-44
2021/12/01 04:50:44;;;;;;;;;4.75;4.25;;;;;9.79;68.80;99839.75;5062080;28;45244;-44
2021/12/01 04:53:10;;;;;;;;;4.75;4.50;;;;;9.73;69.16;99828.47;5061862;28;45251;-43
2021/12/01 04:55:35;;;;;;;;;4.75;3.75;;;;;9.69;68.87;99821.59;5050558;28;45509;-42
2021/12/01 04:58:01;;;;;;;;;5.25;5.00;;;;;9.69;68.96;99831.25;5062159;28;45263;-43
2021/12/01 05:00:27;;;;;;;;;4.00;4.00;;;;;9.66;68.76;99826.94;5062031;28;45314;-44
2021/12/01 05:02:53;;;;;;;;;3.00;2.75;;;;;9.68;69.00;99813.78;5061889;28;45228;-46
2021/12/01 05:05:18;;;;;;;;;4.00;4.00;;;;;9.66;69.23;99808.56;5070681;28;45411;-43
2021/12/01 05:07:44;;;;;;;;;3.00;3.00;;;;;9.64;68.91;99793.78;5066804;27;45249;-42
2021/12/01 05:10:10;;;;;;;;;2.75;2.75;;;;;9.67;68.98;99785.81;5061730;28;46053;-44
2021/12/01 05:12:36;;;;;;;;;9.25;6.50;;;;;9.65;68.93;99805.97;5061861;28;45281;-43
2021/12/01 05:15:01;;;;;;;;;1.50;1.50;;;;;9.63;69.42;99792.03;5061852;28;45425;-43
2021/12/01 05:17:27;;;;;;;;;3.00;3.00;;;;;9.63;69.21;99797.28;5061741;28;45256;-44
2021/12/01 05:19:52;;;;;;;;;1.50;1.50;;;;;9.62;69.19;99772.81;5061916;28;45966;-44
2021/12/01 05:22:18;;;;;;;;;2.00;2.00;;;;;9.60;69.42;99772.00;5061544;28;45336;-44
2021/12/01 05:24:43;;;;;;;;;3.00;3.00;;;;;9.60;69.27;99769.38;5055014;28;45231;-42
2021/12/01 05:27:09;;;;;;;;;2.50;2.00;;;;;9.61;69.39;99760.63;5057147;28;45293;-46
2021/12/01 05:29:34;;;;;;;;;2.00;2.00;;;;;9.60;69.24;99758.88;5060772;28;45292;-46
2021/12/01 05:32:01;;;;;;;;;1.75;1.00;;;;;9.52;69.38;99768.69;5061435;28;45319;-43
2021/12/01 05:34:27;;;;;;;;;2.25;2.25;;;;;9.57;69.35;99751.06;5061731;28;45174;-47
2021/12/01 05:36:54;;;;;;;;;2.00;2.00;;;;;9.56;69.50;99744.97;5074581;28;45489;-43
2021/12/01 05:39:20;;;;;;;;;2.25;2.00;;;;;9.57;69.37;99743.22;5061445;28;45920;-44
2021/12/01 05:41:46;;;;;;;;;3.00;2.00;;;;;9.59;69.57;99758.00;5061310;28;45243;-43
2021/12/01 05:44:12;;;;;;;;;1.75;1.75;;;;;9.60;69.39;99738.75;5061544;28;45469;-43
2021/12/01 05:46:37;;;;;;;;;2.00;2.00;;;;;9.57;69.51;99720.47;5061334;28;45684;-44
2021/12/01 05:49:04;;;;;;;;;2.00;0.00;;;;;9.57;69.38;99727.47;5060745;28;46451;-45
2021/12/01 05:51:29;;;;;;;;;1.75;1.25;;;;;9.60;69.01;99732.66;5061113;28;45255;-45
2021/12/01 05:53:55;;;;;;;;;1.00;1.00;;;;;9.60;69.57;99724.78;5060629;28;45403;-45
2021/12/01 05:56:20;;;;;;;;;1.00;1.00;;;;;9.59;69.59;99728.31;5061038;28;45534;-43
2021/12/01 05:58:46;;;;;;;;;1.00;1.00;;;;;9.60;70.01;99735.28;5061315;28;45420;-46
2021/12/01 06:01:11;;;;;;;;;1.00;1.00;;;;;9.58;70.10;99721.34;5061096;28;45295;-46
2021/12/01 06:03:38;;;;;;;;;1.75;1.00;;;;;9.60;69.79;99711.66;5059877;28;45328;-44
2021/12/01 06:06:04;;;;;;;;;1.00;1.00;;;;;9.63;69.65;99711.56;5074488;28;45622;-43
2021/12/01 06:08:29;;;;;;;;;1.50;1.50;;;;;9.63;70.22;99708.94;5060574;28;45454;-47
2021/12/01 06:10:55;;;;;;;;;1.00;1.00;;;;;9.63;69.97;99695.00;5060355;28;45313;-47
2021/12/01 06:13:21;;;;;;;;;1.00;0.75;;;;;9.61;70.24;99684.53;5061126;28;45303;-46
2021/12/01 06:15:49;;;;;;;;;1.00;1.00;;;;;9.68;70.49;99677.34;5061393;28;45482;-44
2021/12/01 06:18:16;;;;;;;;;1.25;1.25;;;;;9.68;69.89;99683.44;5060920;28;45351;-44
2021/12/01 06:20:41;;;;;;;;;1.25;1.25;;;;;9.69;70.26;99679.94;5066757;28;45239;-46
2021/12/01 06:23:07;;;;;;;;;1.75;1.25;;;;;9.72;70.08;99677.25;5060867;28;45317;-46
2021/12/01 06:25:32;;;;;;;;;0.00;0.00;;;;;9.74;70.20;99650.97;5060387;28;45343;-44
2021/12/01 06:27:58;;;;;;;;;1.25;1.25;;;;;9.71;70.44;99665.03;5061378;28;46049;-46
2021/12/01 06:30:25;;;;;;;;;1.75;1.75;;;;;9.75;70.59;99656.16;5065905;28;45389;-43
2021/12/01 06:32:51;;;;;;;;;1.00;0.00;;;;;9.81;70.52;99662.13;5059551;28;45451;-45
2021/12/01 06:35:17;;;;;;;;;1.00;1.00;;;;;9.85;70.03;99653.25;5073739;28;45531;-45
2021/12/01 06:37:43;;;;;;;;;2.00;2.00;;;;;9.84;70.03;99641.06;5058767;28;46846;-44
2021/12/01 06:40:10;;;;;;;;;1.00;1.00;;;;;9.89;70.05;99642.63;5058669;28;45376;-45
2021/12/01 06:42:36;;;;;;;;;1.00;1.00;;;;;9.91;70.66;99629.47;5059899;28;45216;-44
2021/12/01 06:45:04;;;;;;;;;1.25;1.25;;;;;9.93;70.39;99632.91;5055399;28;45520;-44
2021/12/01 06:47:29;;;;;;;;;1.00;1.00;;;;;9.96;70.56;99659.09;5060460;28;45342;-43
2021/12/01 06:49:55;;;;;;;;;1.00;1.00;;;;;9.98;70.66;99619.66;5059849;28;45290;-43
2021/12/01 06:52:20;;;;;;;;;0.00;0.00;;;;;10.00;70.32;99625.72;5059903;28;45324;-43
2021/12/01 06:54:46;;;;;;;;;1.00;1.00;;;;;10.05;70.37;99622.06;5058093;28;45631;-47
2021/12/01 06:57:11;;;;;;;;;1.00;1.00;;;;;10.06;70.57;99615.03;5060427;28;45400;-48
2021/12/01 06:59:36;;;;;;;;;0.75;0.75;;;;;10.14;70.64;99609.53;5060099;28;45351;-47
2021/12/01 07:02:02;;;;;;;;;0.25;0.25;;;;;10.15;70.66;99604.28;5060339;28;45461;-44
2021/12/01 07:04:29;;;;;;;;;1.00;1.00;;;;;10.16;71.02;99608.63;5060315;28;45474;-45
2021/12/01 07:06:55;;;;;;;;;0.50;0.50;;;;;10.20;70.64;99612.88;5060056;28;45311;-44
2021/12/01 07:09:23;;;;;;;;;0.00;0.00;;;;;10.23;70.71;99609.28;5058396;28;45271;-46
2021/12/01 07:11:49;;;;;;;;;1.00;1.00;;;;;10.23;70.61;99610.13;5060422;28;45253;-45
2021/12/01 07:14:14;;;;;;;;;0.00;0.00;;;;;10.28;70.89;99607.38;5060065;28;45506;-44
2021/12/01 07:16:40;;;;;;;;;1.75;0.25;;;;;10.29;70.55;99605.59;5060148;28;45270;-44
2021/12/01 07:19:06;;;;;;;;;0.00;0.00;;;;;10.33;70.82;99579.19;5060051;28;45340;-45
2021/12/01 07:21:32;;;;;;;;;1.00;1.00;;;;;10.34;71.11;99594.06;5058674;28;45308;-44
2021/12/01 07:23:57;;;;;;;;;0.00;0.00;;;;;10.39;70.81;99597.44;5059459;28;45321;-44
2021/12/01 07:26:22;;;;;;;;;0.00;0.00;;;;;10.39;71.27;99605.31;5048900;28;45367;-45
2021/12/01 07:28:48;;;;;;;;;0.75;0.75;;;;;10.42;71.40;99596.47;5058790;28;45406;-47
2021/12/01 07:31:13;;;;;;;;;1.00;1.00;;;;;10.45;71.15;99603.38;5058785;28;45220;-47
2021/12/01 07:33:39;;;;;;;;;1.00;1.00;;;;;10.48;71.16;99605.94;5059802;28;45241;-48
2021/12/01 07:36:05;;;;;;;;;2.75;1.00;;;;;10.51;71.10;99596.16;5059797;28;45430;-46
2021/12/01 07:38:30;;;;;;;;;0.00;0.00;;;;;10.54;71.03;99598.69;5059723;28;45240;-44
2021/12/01 07:40:56;;;;;;;;;0.00;0.00;;;;;10.56;70.99;99593.38;5041720;28;45340;-44
2021/12/01 07:43:21;;;;;;;;;0.00;0.00;;;;;10.57;70.57;99590.72;5059774;28;45215;-45
2021/12/01 07:45:47;;;;;;;;;0.00;0.00;;;;;10.60;70.97;99588.91;5055007;28;45228;-46
2021/12/01 07:48:13;;;;;;;;;0.00;0.00;;;;;10.62;71.28;99603.72;5059726;28;45236;-46
2021/12/01 07:50:39;;;;;;;;;0.00;0.00;;;;;10.67;71.01;99601.78;5059910;28;45342;-46
2021/12/01 07:53:05;;;;;;;;;0.00;0.00;;;;;10.66;71.29;99600.06;5061656;28;45540;-45
2021/12/01 07:55:30;;;;;;;;;0.00;0.00;;;;;10.66;71.16;99597.44;5051859;27;46258;-45
2021/12/01 07:57:55;;;;;;;;;0.50;0.50;;;;;10.70;71.08;99593.81;5063114;28;45350;-46
2021/12/01 08:00:22;;;;;;;;;0.25;0.00;;;;;10.75;71.43;99587.53;5063389;28;45395;-46
2021/12/01 08:02:47;;;;;;;;;0.00;0.00;;;;;10.79;71.03;99583.91;5061898;28;44847;-43
2021/12/01 08:05:12;;;;;;;;;0.00;0.00;;;;;10.79;70.80;99583.91;5061009;28;46040;-45
2021/12/01 08:07:38;;;;;;;;;1.00;1.00;;;;;10.86;70.96;99586.25;5061129;28;45307;-44
2021/12/01 08:10:06;;;;;;;;;1.00;0.00;;;;;10.86;70.84;99582.78;5061406;28;45493;-44
2021/12/01 08:12:34;;;;;;;;;0.00;0.00;;;;;10.91;71.10;99569.50;5059764;28;45619;-47
2021/12/01 08:15:00;;;;;;;;;0.25;0.25;;;;;10.93;71.34;99572.91;5061054;28;46338;-50
2021/12/01 08:17:25;;;;;;;;;2.00;0.00;;;;;10.93;71.22;99576.41;5061213;28;45496;-49
2021/12/01 08:19:51;;;;;;;;;0.25;0.00;;;;;11.00;71.06;99566.53;5061423;28;45385;-44
2021/12/01 08:22:16;;;;;;;;;0.00;0.00;;;;;11.03;71.31;99564.66;5060778;28;46375;-44
2021/12/01 08:24:41;;;;;;;;;0.00;0.00;;;;;11.02;71.27;99565.56;5060966;28;45875;-43
2021/12/01 08:27:07;;;;;;;;;0.00;0.00;;;;;11.06;71.30;99561.06;5060990;28;45759;-45
2021/12/01 08:29:32;;;;;;;;;1.00;1.00;;;;;11.07;71.18;99568.06;5061230;28;45948;-43
2021/12/01 08:31:59;;;;;;;;;0.00;0.00;;;;;11.06;71.07;99556.66;5054012;28;45838;-43
2021/12/01 08:34:24;;;;;;;;;1.00;0.00;;;;;11.11;71.25;99564.41;5061027;28;45374;-44
2021/12/01 08:36:50;;;;;;;;;0.25;0.00;;;;;11.15;71.25;99562.53;5060568;28;45389;-44
2021/12/01 08:39:15;;;;;;;;;1.33;0.00;;;;;11.19;71.09;99549.22;5061026;28;45449;-45
2021/12/01 08:41:41;;;;;;;;;1.50;1.00;;;;;11.22;71.07;99545.63;5060714;28;45496;-45
2021/12/01 08:44:07;;;;;;;;;1.75;1.00;;;;;11.24;71.07;99550.81;5060891;28;45334;-45
2021/12/01 08:46:32;;;;;;;;;0.50;0.50;;;;;11.25;70.58;99545.50;5059455;28;45384;-43
2021/12/01 08:49:00;;;;;;;;;1.00;0.00;;;;;11.30;70.77;99542.72;5060733;28;45237;-43
2021/12/01 08:51:26;;;;;;;;;0.00;0.00;;;;;11.33;70.83;99539.94;5060375;28;45330;-49
2021/12/01 08:53:52;;;;;;;;;1.00;1.00;;;;;11.33;70.66;99551.34;5059941;28;45446;-45
2021/12/01 08:56:17;;;;;;;;;1.00;1.00;;;;;11.38;70.85;99562.56;5060486;28;45453;-44
2021/12/01 08:58:43;;;;;;;;;0.00;0.00;;;;;11.33;70.98;99543.47;5066183;28;45430;-43
2021/12/01 09:01:08;;;;;;;;;1.75;1.00;;;;;11.42;70.90;99563.31;5067689;27;45595;-43
2021/12/01 09:03:36;;;;;;;;;1.00;1.00;;;;;11.44;70.87;99556.19;5061114;28;45929;-43
2021/12/01 09:06:01;;;;;;;;;1.00;1.00;;;;;11.49;70.83;99553.41;5061579;28;45284;-44
2021/12/01 09:08:27;;;;;;;;;1.50;1.25;;;;;11.48;70.56;99552.56;5062341;28;45405;-43
2021/12/01 09:10:55;;;;;;;;;1.00;1.00;;;;;11.52;70.50;99553.28;5061809;28;45231;-43
2021/12/01 09:13:22;;;;;;;;;1.25;1.25;;;;;11.50;70.45;99541.97;5061958;28;46252;-43
2021/12/01 09:15:49;;;;;;;;;2.25;1.75;;;;;11.56;70.48;99547.00;5061846;28;45316;-42
2021/12/01 09:18:14;;;;;;;;;2.00;2.00;;;;;11.60;70.33;99545.97;5060708;28;46439;-43
2021/12/01 09:20:40;;;;;;;;;3.00;2.00;;;;;11.64;70.23;99542.31;5060943;28;45411;-43
2021/12/01 09:23:06;;;;;;;;;0.00;0.00;;;;;11.69;70.38;99539.50;5060734;28;46239;-42
2021/12/01 09:25:33;;;;;;;;;2.25;1.25;;;;;11.69;70.32;99535.09;5060910;28;45494;-43
2021/12/01 09:28:00;;;;;;;;;3.00;1.00;;;;;11.78;70.50;99539.16;5061268;28;45510;-43
2021/12/01 09:30:26;;;;;;;;;2.25;2.00;;;;;11.85;70.44;99550.31;5060647;28;45486;-44
2021/12/01 09:32:51;;;;;;;;;1.75;1.75;;;;;11.91;70.46;99539.56;5056569;28;46783;-57
2021/12/01 09:35:16;;;;;;;;;2.50;2.50;;;;;11.98;70.37;99538.41;5058442;28;45888;-46
2021/12/01 09:37:42;;;;;;;;;0.00;0.00;;;;;12.07;70.46;99539.81;5060157;28;45438;-46
2021/12/01 09:40:17;;;;;;;;;0.50;0.50;;;;;12.12;70.21;99531.75;5057747;28;45682;-46
2021/12/01 09:42:51;;;;;;;;;0.33;0.33;;;;;12.19;70.07;99535.88;5061261;28;48181;-50
2021/12/01 09:45:20;;;;;;;;;1.00;1.00;;;;;12.20;69.98;99529.69;5057624;28;45368;-46
2021/12/01 09:47:46;;;;;;;;;0.00;0.00;;;;;12.27;69.95;99546.09;5060000;28;45289;-46
2021/12/01 09:50:13;;;;;;;;;2.00;1.00;;;;;12.27;69.69;99536.41;5059630;28;45660;-47
2021/12/01 09:52:39;;;;;;;;;2.00;0.00;;;;;12.29;69.81;99552.13;5058501;28;47334;-47
2021/12/01 09:55:07;;;;;;;;;0.00;0.00;;;;;12.34;69.41;99552.84;5058282;28;45305;-50
2021/12/01 09:57:32;;;;;;;;;1.00;0.00;;;;;12.40;69.41;99557.84;5033352;28;45797;-46
2021/12/01 09:59:58;;;;;;;;;0.50;0.00;;;;;12.40;69.19;99556.97;5061064;27;45334;-48
2021/12/01 10:02:25;;;;;;;;;0.33;0.33;;;;;12.42;68.92;99544.59;5058579;28;46205;-47
2021/12/01 10:04:51;;;;;;;;;0.33;0.33;;;;;12.43;69.11;99552.44;5058174;28;46428;-50
2021/12/01 10:07:34;;;;;;;;;1.00;1.00;;;;;12.45;68.82;99562.91;5059235;28;45434;-47
2021/12/01 10:10:07;;;;;;;;;1.00;1.00;;;;;12.43;68.79;99549.81;5054818;28;45280;-50
2021/12/01 10:12:51;;;;;;;;;0.00;0.00;;;;;12.48;68.45;99554.91;5059448;28;46427;-48
2021/12/01 10:15:31;;;;;;;;;1.00;1.00;;;;;12.48;68.30;99547.84;5056948;28;45443;-59
2021/12/01 10:18:16;;;;;;;;;1.33;1.33;;;;;12.46;68.48;99551.47;5058056;28;46378;-48
2021/12/01 10:20:43;;;;;;;;;4.75;3.25;;;;;12.46;68.28;99554.94;5059007;28;45571;-50
2021/12/01 10:23:18;;;;;;;;;5.00;1.00;;;;;12.42;68.02;99550.72;5058565;28;45485;-48
2021/12/01 10:25:43;;;;;;;;;1.75;1.00;;;;;12.46;68.04;99548.81;5057491;28;45430;-51
2021/12/01 10:28:29;;;;;;;;;6.25;5.25;;;;;12.46;68.40;99554.94;5059313;28;45361;-48
2021/12/01 10:30:55;;;;;;;;;1.25;1.25;;;;;12.42;68.24;99548.09;5059319;28;45487;-47
2021/12/01 10:33:20;;;;;;;;;0.50;0.00;;;;;12.42;68.41;99547.25;5059285;28;46033;-47
2021/12/01 10:35:45;;;;;;;;;3.00;3.00;;;;;12.40;67.87;99551.72;5059499;28;45382;-47
2021/12/01 10:38:13;;;;;;;;;1.00;1.00;;;;;12.38;67.93;99533.34;5059972;28;45484;-47
2021/12/01 10:40:39;;;;;;;;;0.00;0.00;;;;;12.34;67.74;99540.50;5059553;28;45310;-46
2021/12/01 10:43:07;;;;;;;;;2.75;1.00;;;;;12.38;67.61;99543.00;5059794;28;46290;-48
2021/12/01 10:45:39;;;;;;;;;1.00;1.00;;;;;12.38;67.72;99554.41;5058438;28;45437;-46
2021/12/01 10:48:08;;;;;;;;;0.33;0.33;;;;;12.37;67.36;99565.03;5059249;28;45338;-48
2021/12/01 10:50:37;;;;;;;;;1.50;1.00;;;;;12.34;67.56;99566.84;5058200;28;45441;-49
2021/12/01 10:53:12;;;;;;;;;2.75;2.50;;;;;12.34;67.35;99544.94;5058822;28;45326;-47
2021/12/01 10:55:44;;;;;;;;;4.25;3.00;;;;;12.30;67.46;99546.81;5064221;28;45306;-45
2021/12/01 10:58:10;;;;;;;;;1.25;1.25;;;;;12.27;67.17;99552.19;5061860;28;45602;-46
2021/12/01 11:00:39;;;;;;;;;1.50;1.50;;;;;12.21;67.32;99544.53;5059143;28;45461;-46
2021/12/01 11:03:05;;;;;;;;;2.00;2.00;;;;;12.24;67.14;99546.19;5058433;28;46968;-45
2021/12/01 11:05:33;;;;;;;;;2.00;2.00;;;;;12.17;67.26;99556.97;5059307;28;45618;-45
2021/12/01 11:08:29;;;;;;;;;2.00;1.25;;;;;12.16;67.04;99554.41;5057730;28;45411;-51
2021/12/01 11:11:13;;;;;;;;;1.00;1.00;;;;;12.13;66.98;99552.75;5045514;28;45784;-47
2021/12/01 11:13:42;;;;;;;;;1.00;1.00;;;;;12.14;67.01;99549.19;5067680;28;46329;-47
2021/12/01 11:16:10;;;;;;;;;0.25;0.25;;;;;12.18;66.80;99548.16;5058520;28;45407;-60
2021/12/01 11:18:39;;;;;;;;;2.00;2.00;;;;;12.23;67.03;99545.34;5059093;28;45260;-46
2021/12/01 11:21:14;;;;;;;;;3.75;2.00;;;;;12.31;66.97;99545.03;5058193;28;45757;-50
2021/12/01 11:23:42;;;;;;;;;2.00;1.00;;;;;12.38;66.81;99546.50;5058715;28;45382;-48
2021/12/01 11:26:13;;;;;;;;;1.00;1.00;;;;;12.41;66.60;99533.19;5057967;28;45468;-47
2021/12/01 11:28:55;;;;;;;;;2.00;0.50;;;;;12.51;66.91;99541.59;5058178;28;45489;-49
2021/12/01 11:31:26;;;;;;;;;2.00;2.00;;;;;12.54;66.76;99540.59;5058176;28;45798;-50
2021/12/01 11:33:55;;;;;;;;;1.50;1.50;;;;;12.57;66.54;99543.13;5058344;28;47032;-47
2021/12/01 11:36:27;;;;;;;;;1.50;1.00;;;;;12.59;66.39;99536.00;5090736;27;45978;-47
2021/12/01 11:38:56;;;;;;;;;1.00;1.00;;;;;12.60;66.60;99548.25;5059754;28;45394;-47